createdAt,value
2022-07-30T00:00:24.671Z,50.59
2022-07-30T00:01:24.481Z,50.78
2022-07-30T00:03:28.516Z,50.88
2022-07-30T00:04:28.459Z,50.88
2022-07-30T00:06:32.456Z,51.65
2022-07-30T00:07:32.438Z,51.36
2022-07-30T00:09:36.920Z,51.36
2022-07-30T00:10:36.434Z,51.56
2022-07-30T00:11:36.428Z,51.56
2022-07-30T00:12:36.437Z,51.75
2022-07-30T00:13:36.439Z,51.65
2022-07-30T00:14:36.439Z,51.65
2022-07-30T00:15:36.477Z,51.26
2022-07-30T00:16:36.542Z,51.65
2022-07-30T00:17:36.465Z,51.56
2022-07-30T00:18:36.446Z,51.75
2022-07-30T00:19:36.452Z,51.46
2022-07-30T00:20:36.454Z,51.53
2022-07-30T00:21:39.176Z,51.65
2022-07-30T00:22:36.467Z,51.75
2022-07-30T00:23:36.456Z,52.13
2022-07-30T00:24:36.464Z,52.23
2022-07-30T00:25:36.463Z,52.13
2022-07-30T00:26:36.457Z,51.94
2022-07-30T00:27:36.466Z,52.01
2022-07-30T00:28:36.473Z,51.84
2022-07-30T00:29:36.469Z,52.01
2022-07-30T00:30:36.540Z,52.49
2022-07-30T00:31:36.502Z,52.40
2022-07-30T00:32:36.486Z,52.59
2022-07-30T00:33:36.486Z,52.49
2022-07-30T00:34:36.485Z,52.49
2022-07-30T00:35:36.489Z,52.20
2022-07-30T00:36:36.506Z,52.87
2022-07-30T00:37:36.517Z,52.69
2022-07-30T00:38:36.490Z,52.59
2022-07-30T00:39:36.490Z,52.69
2022-07-30T00:40:36.495Z,52.78
2022-07-30T00:41:36.493Z,52.59
2022-07-30T00:42:36.505Z,52.30
2022-07-30T00:43:36.508Z,52.69
2022-07-30T00:44:36.499Z,52.59
2022-07-30T00:45:36.527Z,52.49
2022-07-30T00:46:36.506Z,52.78
2022-07-30T00:47:36.515Z,52.69
2022-07-30T00:48:36.519Z,53.07
2022-07-30T00:49:39.299Z,52.87
2022-07-30T00:50:36.530Z,53.17
2022-07-30T00:51:36.519Z,52.87
2022-07-30T00:52:36.522Z,53.17
2022-07-30T00:53:36.546Z,53.07
2022-07-30T00:54:36.529Z,53.17
2022-07-30T00:55:36.528Z,53.27
2022-07-30T00:56:36.531Z,52.87
2022-07-30T00:57:36.527Z,53.27
2022-07-30T00:58:36.529Z,53.27
2022-07-30T00:59:36.530Z,53.36
2022-07-30T01:00:36.537Z,53.27
2022-07-30T01:01:36.627Z,53.36
2022-07-30T01:02:36.592Z,53.17
2022-07-30T01:03:36.541Z,53.45
2022-07-30T01:04:36.543Z,53.45
2022-07-30T01:05:36.543Z,53.27
2022-07-30T01:06:36.553Z,53.65
2022-07-30T01:07:36.553Z,53.94
2022-07-30T01:08:36.560Z,53.45
2022-07-30T01:09:36.564Z,53.45
2022-07-30T01:10:36.566Z,53.74
2022-07-30T01:11:36.573Z,53.65
2022-07-30T01:12:36.576Z,53.55
2022-07-30T01:13:36.584Z,53.84
2022-07-30T01:14:36.602Z,53.45
2022-07-30T01:15:36.608Z,53.45
2022-07-30T01:16:37.966Z,53.65
2022-07-30T01:17:36.568Z,53.74
2022-07-30T01:18:36.570Z,53.65
2022-07-30T01:19:36.575Z,53.74
2022-07-30T01:20:36.581Z,53.55
2022-07-30T01:21:36.575Z,53.74
2022-07-30T01:22:36.577Z,53.94
2022-07-30T01:23:36.581Z,53.84
2022-07-30T01:24:36.585Z,53.74
2022-07-30T01:25:36.587Z,53.84
2022-07-30T01:26:36.610Z,53.84
2022-07-30T01:27:36.588Z,54.32
2022-07-30T01:28:36.605Z,54.22
2022-07-30T01:29:36.596Z,54.32
2022-07-30T01:30:36.658Z,53.91
2022-07-30T01:31:36.777Z,54.39
2022-07-30T01:32:36.633Z,54.20
2022-07-30T01:33:36.618Z,54.20
2022-07-30T01:34:36.620Z,54.71
2022-07-30T01:35:36.633Z,54.42
2022-07-30T01:36:36.640Z,54.32
2022-07-30T01:37:36.617Z,54.39
2022-07-30T01:38:36.658Z,54.39
2022-07-30T01:39:36.633Z,54.30
2022-07-30T01:40:36.609Z,54.39
2022-07-30T01:41:36.634Z,54.97
2022-07-30T01:42:36.618Z,54.78
2022-07-30T01:43:36.645Z,54.78
2022-07-30T01:44:36.682Z,54.97
2022-07-30T01:45:42.212Z,54.78
2022-07-30T01:46:36.623Z,54.78
2022-07-30T01:47:36.629Z,54.78
2022-07-30T01:48:36.627Z,54.68
2022-07-30T01:49:36.632Z,54.97
2022-07-30T01:50:36.640Z,54.87
2022-07-30T01:51:37.616Z,54.87
2022-07-30T01:52:36.647Z,54.78
2022-07-30T01:53:36.650Z,54.97
2022-07-30T01:54:36.667Z,55.26
2022-07-30T01:55:36.663Z,55.16
2022-07-30T01:56:36.666Z,55.07
2022-07-30T01:57:36.664Z,55.74
2022-07-30T01:58:36.651Z,55.55
2022-07-30T01:59:36.656Z,55.74
2022-07-30T02:00:36.735Z,55.26
2022-07-30T02:01:36.654Z,55.35
2022-07-30T02:02:36.672Z,55.35
2022-07-30T02:03:36.693Z,55.26
2022-07-30T02:04:36.666Z,55.35
2022-07-30T02:05:36.663Z,55.45
2022-07-30T02:06:36.662Z,55.35
2022-07-30T02:07:36.664Z,55.07
2022-07-30T02:08:36.665Z,55.55
2022-07-30T02:09:36.669Z,55.55
2022-07-30T02:10:36.675Z,55.45
2022-07-30T02:11:36.673Z,55.93
2022-07-30T02:12:36.679Z,55.65
2022-07-30T02:13:36.688Z,55.65
2022-07-30T02:14:36.685Z,55.45
2022-07-30T02:15:36.692Z,56.03
2022-07-30T02:16:36.730Z,55.93
2022-07-30T02:17:39.887Z,55.65
2022-07-30T02:18:39.455Z,56.10
2022-07-30T02:19:36.680Z,55.71
2022-07-30T02:20:38.402Z,56.10
2022-07-30T02:21:37.155Z,56.32
2022-07-30T02:22:36.741Z,56.10
2022-07-30T02:23:36.724Z,56.32
2022-07-30T02:24:36.711Z,56.03
2022-07-30T02:25:36.704Z,55.71
2022-07-30T02:26:36.693Z,56.20
2022-07-30T02:27:38.165Z,56.29
2022-07-30T02:28:36.751Z,56.20
2022-07-30T02:29:36.714Z,56.38
2022-07-30T02:30:36.715Z,56.10
2022-07-30T02:31:36.746Z,56.10
2022-07-30T02:32:36.713Z,55.81
2022-07-30T02:33:36.725Z,56.29
2022-07-30T02:34:36.722Z,56.67
2022-07-30T02:35:36.720Z,56.67
2022-07-30T02:36:36.714Z,56.20
2022-07-30T02:37:39.276Z,56.38
2022-07-30T02:38:36.750Z,56.67
2022-07-30T02:39:36.713Z,56.38
2022-07-30T02:40:36.721Z,56.58
2022-07-30T02:41:36.727Z,56.38
2022-07-30T02:42:36.723Z,56.67
2022-07-30T02:43:36.774Z,56.67
2022-07-30T02:44:36.750Z,56.58
2022-07-30T02:45:36.745Z,56.77
2022-07-30T02:46:36.764Z,56.38
2022-07-30T02:47:36.738Z,56.58
2022-07-30T02:48:36.733Z,56.58
2022-07-30T02:49:36.739Z,56.96
2022-07-30T02:50:36.764Z,57.25
2022-07-30T02:51:36.742Z,56.96
2022-07-30T02:52:36.757Z,56.96
2022-07-30T02:53:36.755Z,57.25
2022-07-30T02:54:36.750Z,57.25
2022-07-30T02:55:36.745Z,57.15
2022-07-30T02:56:36.743Z,57.35
2022-07-30T02:57:36.747Z,57.45
2022-07-30T02:58:36.744Z,57.45
2022-07-30T02:59:36.756Z,57.35
2022-07-30T03:00:36.769Z,57.54
2022-07-30T03:01:36.800Z,57.25
2022-07-30T03:02:36.773Z,57.35
2022-07-30T03:03:36.760Z,57.35
2022-07-30T03:04:36.759Z,57.45
2022-07-30T03:05:36.761Z,57.45
2022-07-30T03:06:36.785Z,57.25
2022-07-30T03:07:36.766Z,57.15
2022-07-30T03:08:36.765Z,57.45
2022-07-30T03:09:50.945Z,57.25
2022-07-30T03:10:36.782Z,57.92
2022-07-30T03:11:36.766Z,57.54
2022-07-30T03:12:36.822Z,57.92
2022-07-30T03:13:36.780Z,57.73
2022-07-30T03:14:36.771Z,57.83
2022-07-30T03:15:39.181Z,57.54
2022-07-30T03:16:36.855Z,57.54
2022-07-30T03:17:36.772Z,57.45
2022-07-30T03:18:36.775Z,57.92
2022-07-30T03:19:36.773Z,58.31
2022-07-30T03:20:36.786Z,58.02
2022-07-30T03:21:36.777Z,58.09
2022-07-30T03:22:36.786Z,58.09
2022-07-30T03:23:36.786Z,58.18
2022-07-30T03:24:36.811Z,58.09
2022-07-30T03:25:36.794Z,58.18
2022-07-30T03:26:36.787Z,57.99
2022-07-30T03:27:36.786Z,58.60
2022-07-30T03:28:36.798Z,58.50
2022-07-30T03:29:36.797Z,58.47
2022-07-30T03:30:36.801Z,58.37
2022-07-30T03:31:37.872Z,58.60
2022-07-30T03:32:36.801Z,58.02
2022-07-30T03:33:38.581Z,58.40
2022-07-30T03:34:36.803Z,58.50
2022-07-30T03:35:36.796Z,58.40
2022-07-30T03:36:36.806Z,58.31
2022-07-30T03:37:36.809Z,57.99
2022-07-30T03:38:36.806Z,58.40
2022-07-30T03:39:36.810Z,58.37
2022-07-30T03:40:36.804Z,58.57
2022-07-30T03:41:36.808Z,58.22
2022-07-30T03:42:36.914Z,58.67
2022-07-30T03:43:36.813Z,58.12
2022-07-30T03:44:36.817Z,58.22
2022-07-30T03:45:36.813Z,58.50
2022-07-30T03:46:36.918Z,58.31
2022-07-30T03:47:36.824Z,58.50
2022-07-30T03:48:36.825Z,58.50
2022-07-30T03:49:36.821Z,58.37
2022-07-30T03:50:36.823Z,58.57
2022-07-30T03:51:36.835Z,58.40
2022-07-30T03:52:36.824Z,58.40
2022-07-30T03:53:36.829Z,58.50
2022-07-30T03:54:36.826Z,58.60
2022-07-30T03:55:36.825Z,58.79
2022-07-30T03:56:36.840Z,58.79
2022-07-30T03:57:36.829Z,59.08
2022-07-30T03:58:36.834Z,59.08
2022-07-30T03:59:36.838Z,58.98
2022-07-30T04:00:36.840Z,58.98
2022-07-30T04:01:36.888Z,58.89
2022-07-30T04:02:36.844Z,58.40
2022-07-30T04:03:36.911Z,58.50
2022-07-30T04:04:36.843Z,58.40
2022-07-30T04:05:41.334Z,58.60
2022-07-30T04:06:36.851Z,58.31
2022-07-30T04:07:44.924Z,58.50
2022-07-30T04:08:36.852Z,58.67
2022-07-30T04:09:36.858Z,58.40
2022-07-30T04:10:36.852Z,58.67
2022-07-30T04:11:40.905Z,58.79
2022-07-30T04:12:36.855Z,58.95
2022-07-30T04:13:36.851Z,58.76
2022-07-30T04:14:37.029Z,59.27
2022-07-30T04:16:40.108Z,59.27
2022-07-30T04:16:41.572Z,59.17
2022-07-30T04:17:36.938Z,58.89
2022-07-30T04:18:36.862Z,58.98
2022-07-30T04:19:36.870Z,59.56
2022-07-30T04:20:36.912Z,59.17
2022-07-30T04:21:36.870Z,59.08
2022-07-30T04:22:36.877Z,59.17
2022-07-30T04:24:04.840Z,59.27
2022-07-30T04:24:36.882Z,59.27
2022-07-30T04:25:36.889Z,58.50
2022-07-30T04:26:36.874Z,58.50
2022-07-30T04:27:36.871Z,58.89
2022-07-30T04:28:36.881Z,58.98
2022-07-30T04:29:36.876Z,59.66
2022-07-30T04:30:36.923Z,59.56
2022-07-30T04:31:38.188Z,58.89
2022-07-30T04:32:36.883Z,58.98
2022-07-30T04:33:36.892Z,58.98
2022-07-30T04:34:36.907Z,59.17
2022-07-30T04:35:50.065Z,59.27
2022-07-30T04:36:36.895Z,59.27
2022-07-30T04:37:36.893Z,58.89
2022-07-30T04:38:36.905Z,58.60
2022-07-30T04:39:36.909Z,58.40
2022-07-30T04:40:36.899Z,58.70
2022-07-30T04:41:49.204Z,58.22
2022-07-30T04:42:36.910Z,58.31
2022-07-30T04:43:36.905Z,58.31
2022-07-30T04:44:36.925Z,58.70
2022-07-30T04:45:36.901Z,58.40
2022-07-30T04:46:36.923Z,58.89
2022-07-30T04:47:36.912Z,58.70
2022-07-30T04:48:36.917Z,59.17
2022-07-30T04:49:36.905Z,58.89
2022-07-30T04:50:36.912Z,59.17
2022-07-30T04:51:36.915Z,58.98
2022-07-30T04:52:36.915Z,59.17
2022-07-30T04:53:36.928Z,58.89
2022-07-30T04:54:36.926Z,59.27
2022-07-30T04:55:36.919Z,58.89
2022-07-30T04:56:36.922Z,58.89
2022-07-30T04:57:36.919Z,59.27
2022-07-30T04:58:36.924Z,58.89
2022-07-30T04:59:36.923Z,59.08
2022-07-30T05:00:40.921Z,59.08
2022-07-30T05:01:40.761Z,59.17
2022-07-30T05:02:36.943Z,59.75
2022-07-30T05:03:36.931Z,59.17
2022-07-30T05:04:36.937Z,59.75
2022-07-30T05:05:36.990Z,59.56
2022-07-30T05:06:36.943Z,59.66
2022-07-30T05:07:36.945Z,59.17
2022-07-30T05:08:36.940Z,58.98
2022-07-30T05:09:36.940Z,59.08
2022-07-30T05:10:36.950Z,59.08
2022-07-30T05:11:36.950Z,59.27
2022-07-30T05:12:36.948Z,59.75
2022-07-30T05:13:38.386Z,59.47
2022-07-30T05:14:36.964Z,59.37
2022-07-30T05:15:37.474Z,59.85
2022-07-30T05:16:36.959Z,59.75
2022-07-30T05:17:36.964Z,59.66
2022-07-30T05:18:37.004Z,59.75
2022-07-30T05:19:36.962Z,59.17
2022-07-30T05:20:36.975Z,59.56
2022-07-30T05:21:36.970Z,59.47
2022-07-30T05:22:36.969Z,58.98
2022-07-30T05:23:36.962Z,59.47
2022-07-30T05:24:36.966Z,59.75
2022-07-30T05:25:36.967Z,58.98
2022-07-30T05:26:36.976Z,59.17
2022-07-30T05:27:36.978Z,58.98
2022-07-30T05:28:36.972Z,58.89
2022-07-30T05:29:36.981Z,58.98
2022-07-30T05:30:36.984Z,58.98
2022-07-30T05:31:38.092Z,59.27
2022-07-30T05:32:36.989Z,58.98
2022-07-30T05:33:37.293Z,59.17
2022-07-30T05:34:36.986Z,59.27
2022-07-30T05:35:36.994Z,59.56
2022-07-30T05:36:37.005Z,59.56
2022-07-30T05:37:36.997Z,59.66
2022-07-30T05:38:36.998Z,59.27
2022-07-30T05:39:37.000Z,59.27
2022-07-30T05:40:37.015Z,59.56
2022-07-30T05:41:37.012Z,59.85
2022-07-30T05:42:37.014Z,59.85
2022-07-30T05:43:37.012Z,59.66
2022-07-30T05:44:37.009Z,59.27
2022-07-30T05:45:37.009Z,59.30
2022-07-30T05:46:37.062Z,59.88
2022-07-30T05:47:37.024Z,59.78
2022-07-30T05:48:37.015Z,59.11
2022-07-30T05:49:37.026Z,58.92
2022-07-30T05:50:37.020Z,58.82
2022-07-30T05:51:37.062Z,59.01
2022-07-30T05:52:37.034Z,59.11
2022-07-30T05:53:37.024Z,59.11
2022-07-30T05:54:37.038Z,59.40
2022-07-30T05:55:37.031Z,59.78
2022-07-30T05:56:37.041Z,59.78
2022-07-30T05:57:37.040Z,59.78
2022-07-30T05:58:37.047Z,59.88
2022-07-30T05:59:37.056Z,59.97
2022-07-30T06:00:37.052Z,60.27
2022-07-30T06:01:37.076Z,60.07
2022-07-30T06:02:37.058Z,60.07
2022-07-30T06:03:37.067Z,59.69
2022-07-30T06:04:37.078Z,59.81
2022-07-30T06:05:37.058Z,59.52
2022-07-30T06:06:37.071Z,58.95
2022-07-30T06:07:37.060Z,58.85
2022-07-30T06:08:37.067Z,58.75
2022-07-30T06:09:37.443Z,58.56
2022-07-30T06:10:37.072Z,58.75
2022-07-30T06:11:37.076Z,58.56
2022-07-30T06:12:37.079Z,58.27
2022-07-30T06:13:37.083Z,58.75
2022-07-30T06:14:37.116Z,58.75
2022-07-30T06:15:37.131Z,58.95
2022-07-30T06:16:37.085Z,58.75
2022-07-30T06:17:41.188Z,58.17
2022-07-30T06:18:37.095Z,58.47
2022-07-30T06:19:37.099Z,58.75
2022-07-30T06:20:37.102Z,58.08
2022-07-30T06:22:06.242Z,58.17
2022-07-30T06:22:37.114Z,58.11
2022-07-30T06:23:37.108Z,57.62
2022-07-30T06:24:37.136Z,57.62
2022-07-30T06:25:37.156Z,57.72
2022-07-30T06:26:37.134Z,57.53
2022-07-30T06:27:39.729Z,57.24
2022-07-30T06:28:38.766Z,57.24
2022-07-30T06:29:37.135Z,57.14
2022-07-30T06:30:37.191Z,57.62
2022-07-30T06:31:37.172Z,57.56
2022-07-30T06:32:37.161Z,56.98
2022-07-30T06:33:37.181Z,56.21
2022-07-30T06:34:37.178Z,56.11
2022-07-30T06:35:37.180Z,55.63
2022-07-30T06:36:37.185Z,56.01
2022-07-30T06:38:05.851Z,55.92
2022-07-30T06:38:37.197Z,55.82
2022-07-30T06:39:56.710Z,56.11
2022-07-30T06:40:37.193Z,56.11
2022-07-30T06:41:37.228Z,55.44
2022-07-30T06:42:37.204Z,55.34
2022-07-30T06:43:37.213Z,55.34
2022-07-30T06:44:37.212Z,55.54
2022-07-30T06:45:37.220Z,55.34
2022-07-30T06:46:37.399Z,55.54
2022-07-30T06:47:37.242Z,55.63
2022-07-30T06:48:37.250Z,55.73
2022-07-30T06:49:37.243Z,55.34
2022-07-30T06:50:37.255Z,55.73
2022-07-30T06:51:37.265Z,56.01
2022-07-30T06:52:37.264Z,56.52
2022-07-30T06:53:42.725Z,56.81
2022-07-30T06:54:37.287Z,55.27
2022-07-30T06:55:37.291Z,55.36
2022-07-30T06:56:37.291Z,55.76
2022-07-30T06:57:42.380Z,55.46
2022-07-30T06:58:37.310Z,55.66
2022-07-30T06:59:56.568Z,55.01
2022-07-30T07:00:37.323Z,54.40
2022-07-30T07:01:37.391Z,54.43
2022-07-30T07:02:37.333Z,54.31
2022-07-30T07:03:39.861Z,54.21
2022-07-30T07:04:37.412Z,54.79
2022-07-30T07:05:37.359Z,55.08
2022-07-30T07:06:37.370Z,55.36
2022-07-30T07:07:42.312Z,55.36
2022-07-30T07:08:37.364Z,55.30
2022-07-30T07:09:38.483Z,54.91
2022-07-30T07:10:37.443Z,55.40
2022-07-30T07:11:37.388Z,55.40
2022-07-30T07:12:37.393Z,55.30
2022-07-30T07:13:37.408Z,54.62
2022-07-30T07:14:37.406Z,54.69
2022-07-30T07:15:37.748Z,55.01
2022-07-30T07:16:37.482Z,55.27
2022-07-30T07:17:37.442Z,55.01
2022-07-30T07:18:37.448Z,55.10
2022-07-30T07:20:00.172Z,54.91
2022-07-30T07:20:37.446Z,54.53
2022-07-30T07:21:37.463Z,54.43
2022-07-30T07:22:37.462Z,54.43
2022-07-30T07:23:42.332Z,54.62
2022-07-30T07:24:37.475Z,54.82
2022-07-30T07:25:37.495Z,54.82
2022-07-30T07:26:37.528Z,55.30
2022-07-30T07:27:37.491Z,55.10
2022-07-30T07:28:37.518Z,55.01
2022-07-30T07:29:37.504Z,55.49
2022-07-30T07:30:37.549Z,54.82
2022-07-30T07:32:04.505Z,54.91
2022-07-30T07:32:37.548Z,54.53
2022-07-30T07:33:37.535Z,55.01
2022-07-30T07:34:37.536Z,55.30
2022-07-30T07:35:41.142Z,55.01
2022-07-30T07:36:37.627Z,55.49
2022-07-30T07:37:37.562Z,55.10
2022-07-30T07:38:37.554Z,55.01
2022-07-30T07:39:42.017Z,54.43
2022-07-30T07:40:37.560Z,54.82
2022-07-30T07:41:48.519Z,55.10
2022-07-30T07:42:37.609Z,54.91
2022-07-30T07:43:37.581Z,54.62
2022-07-30T07:44:37.588Z,54.72
2022-07-30T07:45:37.634Z,54.62
2022-07-30T07:46:37.673Z,55.01
2022-07-30T07:47:37.610Z,54.98
2022-07-30T07:48:37.616Z,55.49
2022-07-30T07:49:37.617Z,55.88
2022-07-30T07:50:37.618Z,55.88
2022-07-30T07:51:48.345Z,55.20
2022-07-30T07:52:37.632Z,56.26
2022-07-30T07:53:37.644Z,55.98
2022-07-30T07:54:37.641Z,55.40
2022-07-30T07:55:37.679Z,55.49
2022-07-30T07:56:37.658Z,55.68
2022-07-30T07:57:37.662Z,55.78
2022-07-30T07:58:38.292Z,55.30
2022-07-30T07:59:39.967Z,55.01
2022-07-30T08:00:37.701Z,54.82
2022-07-30T08:01:37.714Z,55.10
2022-07-30T08:02:37.741Z,54.82
2022-07-30T08:03:37.694Z,54.91
2022-07-30T08:04:37.698Z,55.49
2022-07-30T08:06:01.083Z,55.20
2022-07-30T08:06:37.712Z,55.68
2022-07-30T08:07:37.712Z,56.07
2022-07-30T08:08:37.722Z,55.49
2022-07-30T08:09:40.702Z,55.59
2022-07-30T08:10:37.738Z,55.30
2022-07-30T08:11:37.748Z,55.59
2022-07-30T08:12:37.736Z,55.59
2022-07-30T08:13:49.106Z,54.82
2022-07-30T08:14:37.750Z,54.91
2022-07-30T08:15:37.783Z,55.20
2022-07-30T08:16:37.845Z,55.01
2022-07-30T08:17:37.785Z,55.10
2022-07-30T08:18:37.804Z,55.30
2022-07-30T08:19:37.830Z,55.10
2022-07-30T08:20:37.795Z,54.75
2022-07-30T08:21:37.792Z,54.72
2022-07-30T08:22:37.809Z,55.04
2022-07-30T08:23:42.166Z,54.84
2022-07-30T08:24:37.802Z,54.65
2022-07-30T08:25:37.894Z,55.04
2022-07-30T08:26:37.828Z,54.94
2022-07-30T08:27:37.826Z,54.07
2022-07-30T08:28:37.839Z,54.07
2022-07-30T08:29:37.846Z,53.78
2022-07-30T08:30:37.870Z,54.27
2022-07-30T08:31:37.840Z,55.01
2022-07-30T08:32:37.874Z,55.13
2022-07-30T08:33:37.845Z,55.13
2022-07-30T08:34:37.856Z,55.04
2022-07-30T08:35:37.858Z,56.10
2022-07-30T08:36:37.863Z,56.00
2022-07-30T08:37:37.871Z,55.33
2022-07-30T08:38:37.876Z,55.04
2022-07-30T08:39:37.877Z,54.36
2022-07-30T08:40:37.885Z,53.97
2022-07-30T08:41:37.893Z,54.84
2022-07-30T08:42:37.895Z,55.04
2022-07-30T08:43:37.906Z,55.13
2022-07-30T08:44:37.902Z,54.94
2022-07-30T08:45:37.920Z,54.65
2022-07-30T08:46:37.943Z,54.36
2022-07-30T08:47:37.923Z,54.27
2022-07-30T08:48:37.924Z,54.36
2022-07-30T08:49:37.933Z,54.27
2022-07-30T08:50:37.933Z,54.36
2022-07-30T08:51:37.954Z,55.13
2022-07-30T08:52:37.946Z,54.55
2022-07-30T08:53:37.954Z,54.46
2022-07-30T08:54:37.991Z,53.78
2022-07-30T08:55:37.973Z,54.75
2022-07-30T08:56:37.995Z,54.75
2022-07-30T08:57:37.975Z,55.04
2022-07-30T08:58:37.998Z,55.13
2022-07-30T08:59:59.151Z,54.75
2022-07-30T09:00:37.989Z,54.46
2022-07-30T09:01:37.987Z,55.33
2022-07-30T09:02:38.038Z,55.42
2022-07-30T09:03:38.007Z,55.55
2022-07-30T09:04:37.998Z,55.74
2022-07-30T09:05:38.009Z,55.45
2022-07-30T09:06:38.033Z,55.26
2022-07-30T09:07:38.045Z,54.77
2022-07-30T09:08:38.031Z,54.68
2022-07-30T09:09:38.046Z,54.39
2022-07-30T09:10:38.068Z,53.61
2022-07-30T09:11:38.045Z,53.91
2022-07-30T09:12:38.043Z,53.71
2022-07-30T09:13:38.052Z,53.61
2022-07-30T09:14:38.070Z,53.61
2022-07-30T09:15:38.058Z,53.13
2022-07-30T09:16:38.061Z,54.00
2022-07-30T09:17:38.073Z,54.00
2022-07-30T09:18:38.079Z,54.39
2022-07-30T09:19:38.094Z,53.52
2022-07-30T09:20:38.085Z,53.81
2022-07-30T09:21:38.090Z,53.71
2022-07-30T09:22:38.099Z,53.81
2022-07-30T09:23:38.102Z,53.71
2022-07-30T09:24:38.104Z,53.71
2022-07-30T09:25:38.122Z,54.00
2022-07-30T09:26:38.164Z,53.61
2022-07-30T09:27:38.143Z,53.91
2022-07-30T09:28:38.191Z,54.49
2022-07-30T09:29:38.155Z,54.39
2022-07-30T09:30:38.179Z,54.29
2022-07-30T09:31:40.899Z,54.39
2022-07-30T09:32:38.154Z,53.74
2022-07-30T09:33:38.176Z,53.81
2022-07-30T09:34:38.210Z,54.00
2022-07-30T09:35:38.178Z,54.10
2022-07-30T09:36:38.161Z,53.81
2022-07-30T09:37:38.175Z,54.00
2022-07-30T09:38:38.166Z,54.49
2022-07-30T09:39:38.181Z,54.00
2022-07-30T09:40:38.188Z,54.03
2022-07-30T09:41:39.797Z,53.74
2022-07-30T09:42:38.196Z,53.64
2022-07-30T09:43:38.197Z,53.55
2022-07-30T09:44:38.207Z,53.74
2022-07-30T09:45:38.217Z,53.16
2022-07-30T09:46:38.208Z,53.55
2022-07-30T09:47:38.223Z,53.45
2022-07-30T09:48:38.214Z,53.74
2022-07-30T09:49:38.229Z,54.03
2022-07-30T09:50:38.236Z,53.83
2022-07-30T09:51:56.250Z,53.74
2022-07-30T09:52:44.125Z,53.55
2022-07-30T09:53:38.248Z,53.25
2022-07-30T09:54:38.269Z,53.64
2022-07-30T09:55:41.069Z,53.45
2022-07-30T09:56:38.267Z,53.25
2022-07-30T09:57:38.277Z,53.35
2022-07-30T09:58:38.281Z,53.16
2022-07-30T09:59:38.271Z,53.25
2022-07-30T10:00:38.281Z,53.35
2022-07-30T10:01:49.899Z,53.35
2022-07-30T10:02:38.294Z,53.25
2022-07-30T10:03:42.067Z,52.97
2022-07-30T10:04:40.362Z,53.35
2022-07-30T10:05:38.496Z,53.35
2022-07-30T10:06:41.797Z,53.25
2022-07-30T10:07:42.750Z,53.38
2022-07-30T10:08:38.325Z,53.57
2022-07-30T10:09:38.329Z,53.38
2022-07-30T10:10:47.163Z,52.80
2022-07-30T10:11:38.339Z,52.61
2022-07-30T10:12:38.909Z,52.31
2022-07-30T10:13:39.972Z,51.83
2022-07-30T10:14:42.666Z,51.83
2022-07-30T10:15:38.359Z,52.22
2022-07-30T10:16:38.364Z,51.76
2022-07-30T10:17:38.390Z,51.86
2022-07-30T10:18:38.387Z,51.56
2022-07-30T10:19:39.844Z,51.76
2022-07-30T10:20:38.399Z,51.76
2022-07-30T10:21:38.405Z,51.56
2022-07-30T10:22:38.412Z,51.28
2022-07-30T10:23:44.289Z,51.47
2022-07-30T10:24:38.416Z,52.24
2022-07-30T10:25:49.024Z,51.86
2022-07-30T10:26:38.419Z,51.47
2022-07-30T10:27:38.436Z,51.18
2022-07-30T10:28:39.422Z,50.89
2022-07-30T10:29:38.469Z,51.95
2022-07-30T10:30:38.441Z,51.08
2022-07-30T10:31:48.915Z,51.18
2022-07-30T10:32:38.450Z,50.79
2022-07-30T10:33:40.120Z,50.98
2022-07-30T10:34:42.456Z,50.79
2022-07-30T10:35:38.652Z,51.28
2022-07-30T10:36:38.491Z,51.08
2022-07-30T10:37:38.475Z,51.08
2022-07-30T10:38:39.174Z,50.70
2022-07-30T10:39:38.491Z,50.50
2022-07-30T10:40:39.646Z,50.31
2022-07-30T10:41:43.194Z,50.79
2022-07-30T10:42:38.501Z,51.08
2022-07-30T10:43:38.508Z,50.70
2022-07-30T10:44:38.514Z,50.70
2022-07-30T10:45:41.844Z,50.89
2022-07-30T10:46:38.525Z,50.89
2022-07-30T10:47:44.242Z,50.98
2022-07-30T10:48:38.531Z,51.08
2022-07-30T10:49:41.315Z,51.08
2022-07-30T10:50:38.551Z,51.18
2022-07-30T10:51:38.553Z,50.98
2022-07-30T10:52:38.561Z,50.79
2022-07-30T10:53:38.585Z,50.79
2022-07-30T10:54:39.609Z,50.60
2022-07-30T10:55:39.498Z,49.82
2022-07-30T10:56:38.575Z,49.63
2022-07-30T10:57:41.548Z,49.73
2022-07-30T10:58:38.600Z,49.73
2022-07-30T10:59:38.603Z,50.02
2022-07-30T11:00:38.671Z,49.63
2022-07-30T11:01:38.613Z,49.44
2022-07-30T11:02:38.620Z,49.34
2022-07-30T11:03:41.144Z,49.92
2022-07-30T11:04:38.625Z,49.63
2022-07-30T11:05:45.008Z,49.92
2022-07-30T11:06:38.635Z,49.73
2022-07-30T11:07:38.661Z,50.02
2022-07-30T11:08:42.943Z,50.31
2022-07-30T11:09:40.807Z,49.63
2022-07-30T11:10:38.677Z,49.54
2022-07-30T11:12:04.967Z,50.12
2022-07-30T11:12:38.669Z,49.95
2022-07-30T11:13:38.677Z,49.24
2022-07-30T11:14:38.683Z,49.27
2022-07-30T11:15:38.681Z,49.07
2022-07-30T11:16:45.898Z,49.37
2022-07-30T11:18:42.873Z,49.37
2022-07-30T11:19:56.433Z,48.88
2022-07-30T11:21:46.784Z,48.49
2022-07-30T11:22:46.792Z,47.81
2022-07-30T11:24:50.772Z,47.43
2022-07-30T11:25:54.947Z,47.91
2022-07-30T11:27:45.569Z,47.91
2022-07-30T11:28:43.715Z,48.01
2022-07-30T11:30:49.531Z,47.81
2022-07-30T11:31:58.637Z,47.33
2022-07-30T11:33:51.736Z,47.43
2022-07-30T11:34:51.719Z,47.24
2022-07-30T11:36:55.753Z,48.20
2022-07-30T11:37:55.761Z,47.84
2022-07-30T11:39:59.762Z,47.52
2022-07-30T11:40:59.744Z,48.13
2022-07-30T11:43:03.775Z,46.77
2022-07-30T11:44:03.766Z,46.09
2022-07-30T11:46:07.772Z,46.00
2022-07-30T11:47:07.796Z,46.39
2022-07-30T11:49:11.845Z,46.87
2022-07-30T11:50:11.798Z,47.26
2022-07-30T11:52:15.816Z,46.00
2022-07-30T11:53:15.812Z,45.32
2022-07-30T11:54:15.819Z,45.42
2022-07-30T11:55:15.832Z,45.78
2022-07-30T11:56:15.852Z,46.29
2022-07-30T11:57:15.845Z,46.26
2022-07-30T11:58:15.835Z,46.26
2022-07-30T11:59:15.840Z,46.48
2022-07-30T12:00:15.848Z,46.58
2022-07-30T12:01:15.909Z,46.00
2022-07-30T12:02:15.861Z,45.71
2022-07-30T12:03:15.870Z,46.00
2022-07-30T12:04:15.870Z,45.81
2022-07-30T12:05:15.875Z,45.71
2022-07-30T12:06:15.881Z,45.61
2022-07-30T12:07:15.882Z,45.51
2022-07-30T12:08:36.065Z,45.71
2022-07-30T12:09:15.910Z,45.30
2022-07-30T12:10:16.243Z,45.59
2022-07-30T12:11:15.914Z,45.13
2022-07-30T12:12:15.912Z,45.03
2022-07-30T12:13:15.957Z,44.64
2022-07-30T12:14:15.924Z,44.64
2022-07-30T12:15:15.936Z,44.74
2022-07-30T12:16:16.075Z,45.13
2022-07-30T12:17:15.948Z,44.74
2022-07-30T12:18:26.343Z,44.35
2022-07-30T12:19:15.969Z,44.74
2022-07-30T12:20:15.961Z,43.68
2022-07-30T12:21:16.097Z,43.00
2022-07-30T12:22:15.988Z,42.80
2022-07-30T12:23:15.982Z,43.00
2022-07-30T12:24:15.983Z,43.00
2022-07-30T12:25:15.995Z,43.38
2022-07-30T12:26:15.997Z,42.13
2022-07-30T12:27:16.011Z,42.32
2022-07-30T12:28:16.007Z,42.80
2022-07-30T12:29:16.035Z,43.48
2022-07-30T12:30:16.031Z,43.87
2022-07-30T12:31:16.052Z,43.58
2022-07-30T12:32:16.052Z,44.06
2022-07-30T12:33:16.160Z,43.58
2022-07-30T12:34:16.063Z,43.19
2022-07-30T12:35:16.074Z,42.61
2022-07-30T12:36:16.068Z,43.19
2022-07-30T12:37:16.076Z,42.90
2022-07-30T12:38:16.081Z,43.09
2022-07-30T12:39:16.089Z,42.61
2022-07-30T12:40:16.131Z,42.41
2022-07-30T12:41:16.147Z,42.61
2022-07-30T12:42:16.114Z,42.61
2022-07-30T12:43:16.116Z,43.00
2022-07-30T12:44:16.141Z,43.09
2022-07-30T12:45:16.125Z,42.80
2022-07-30T12:46:16.136Z,43.09
2022-07-30T12:47:16.138Z,43.77
2022-07-30T12:48:16.142Z,43.58
2022-07-30T12:49:22.058Z,43.79
2022-07-30T12:50:16.219Z,43.60
2022-07-30T12:51:16.210Z,43.77
2022-07-30T12:52:27.425Z,43.60
2022-07-30T12:53:16.282Z,43.79
2022-07-30T12:54:16.176Z,43.60
2022-07-30T12:55:16.174Z,43.89
2022-07-30T12:56:16.204Z,43.60
2022-07-30T12:57:16.256Z,43.21
2022-07-30T12:58:16.249Z,43.02
2022-07-30T12:59:16.241Z,43.29
2022-07-30T13:00:16.245Z,43.87
2022-07-30T13:01:16.322Z,43.50
2022-07-30T13:02:16.215Z,43.60
2022-07-30T13:03:16.216Z,42.72
2022-07-30T13:04:16.231Z,42.14
2022-07-30T13:05:16.256Z,41.47
2022-07-30T13:06:16.305Z,41.47
2022-07-30T13:07:16.277Z,41.17
2022-07-30T13:08:16.266Z,41.47